Time;durP1;ratioP1;P1;durP2;ratioP2;P2;SDS_P1;SDS_P2;PMS_P1;PMS_P2;Temp;Humidity;BMP_temperature;BMP_pressure;BME280_temperature;BME280_humidity;BME280_pressure;Samples;Min_cycle;Max_cycle;Signal;HPM_P1;HPM_P2
2022/10/20 00:00:47;;;;;;;;;;;;;;;17.64;38.17;98962.47;5056278;28;19992;-68
2022/10/20 00:03:12;;;;;;;;;;;;;;;17.64;38.19;98964.31;5055505;28;19920;-68
2022/10/20 00:05:37;;;;;;;;;;;;;;;17.63;38.56;98955.56;5072785;28;20634;-68
2022/10/20 00:08:03;;;;;;;;;;;;;;;17.64;38.48;98953.75;5090859;28;19916;-69
2022/10/20 00:10:28;;;;;;;;;;;;;;;17.65;38.75;98955.41;5055291;28;19917;-71
2022/10/20 00:12:53;;;;;;;;;;;;;;;17.66;38.78;98949.97;5072691;28;20016;-68
2022/10/20 00:15:18;;;;;;;;;;;;;;;17.67;38.80;98950.78;5055735;28;20001;-69
2022/10/20 00:17:45;;;;;;;;;;;;;;;17.64;38.92;98949.28;5091320;28;20465;-69
2022/10/20 00:20:10;;;;;;;;;;;;;;;17.63;39.16;98945.00;5072946;28;19923;-68
2022/10/20 00:22:35;;;;;;;;;;;;;;;17.61;39.30;98936.41;5071980;28;19912;-68
2022/10/20 00:25:01;;;;;;;;;;;;;;;17.62;39.47;98942.53;5090898;28;20311;-69
2022/10/20 00:27:26;;;;;;;;;;;;;;;17.63;39.50;98949.44;5072619;28;19970;-69
2022/10/20 00:29:51;;;;;;;;;;;;;;;17.62;39.46;98948.63;5091155;28;19912;-68
2022/10/20 00:32:17;;;;;;;;;;;;;;;17.62;39.58;98948.63;5090760;28;19912;-69
2022/10/20 00:34:42;;;;;;;;;;;;;;;17.62;39.62;98930.16;5072594;28;19923;-69
2022/10/20 00:37:07;;;;;;;;;;;;;;;17.61;40.04;98944.31;5055003;28;20475;-69
2022/10/20 00:39:32;;;;;;;;;;;;;;;17.61;39.91;98939.03;5072492;28;19919;-68
2022/10/20 00:42:00;;;;;;;;;;;;;;;17.61;39.83;98932.94;5072407;28;19916;-70
2022/10/20 00:44:44;;;;;;;;;;;;;;;17.62;39.96;98942.53;5072995;28;19919;-68
2022/10/20 00:47:14;;;;;;;;;;;;;;;17.61;40.04;98940.88;5071699;28;19919;-68
2022/10/20 00:49:40;;;;;;;;;;;;;;;17.63;39.91;98938.88;5072450;28;19970;-68
2022/10/20 00:52:05;;;;;;;;;;;;;;;17.63;40.08;98939.72;5090476;28;19916;-70
2022/10/20 00:54:30;;;;;;;;;;;;;;;17.63;40.26;98938.88;5072254;28;19912;-69
2022/10/20 00:56:56;;;;;;;;;;;;;;;17.62;40.17;98940.69;5072631;28;19951;-69
2022/10/20 00:59:21;;;;;;;;;;;;;;;17.62;40.00;98940.69;5055242;28;20080;-69
2022/10/20 01:01:47;;;;;;;;;;;;;;;17.63;40.03;98942.38;5071776;28;19916;-69
2022/10/20 01:04:12;;;;;;;;;;;;;;;17.63;40.14;98944.16;5075545;28;20323;-69
2022/10/20 01:06:37;;;;;;;;;;;;;;;17.61;40.30;98954.88;5059233;28;20038;-68
2022/10/20 01:09:03;;;;;;;;;;;;;;;17.59;40.19;98964.78;5075841;28;20311;-68
2022/10/20 01:11:47;;;;;;;;;;;;;;;17.58;40.39;98963.09;5076485;28;19919;-70
2022/10/20 01:14:20;;;;;;;;;;;;;;;17.59;40.45;98956.03;5093563;28;20421;-68
2022/10/20 01:16:45;;;;;;;;;;;;;;;17.58;40.44;98955.19;5075987;28;20002;-68
2022/10/20 01:19:37;;;;;;;;;;;;;;;17.57;40.44;98960.63;5093899;28;20363;-69
2022/10/20 01:22:21;;;;;;;;;;;;;;;17.55;40.43;98952.84;5067586;28;19923;-68
2022/10/20 01:25:00;;;;;;;;;;;;;;;17.57;40.65;98957.97;5092538;28;19919;-68
2022/10/20 01:27:41;;;;;;;;;;;;;;;17.56;40.57;98964.28;5056335;28;20310;-67
2022/10/20 01:30:10;;;;;;;;;;;;;;;17.54;40.46;98962.59;5056515;28;19970;-68
2022/10/20 01:32:48;;;;;;;;;;;;;;;17.55;40.47;98960.78;5053686;28;19912;-69
2022/10/20 01:35:13;;;;;;;;;;;;;;;17.54;40.48;98959.16;5058789;28;19916;-69
2022/10/20 01:37:42;;;;;;;;;;;;;;;17.54;40.43;98962.59;5093658;28;19939;-71
2022/10/20 01:40:10;;;;;;;;;;;;;;;17.55;40.42;98960.78;5075412;28;19912;-69
2022/10/20 01:42:36;;;;;;;;;;;;;;;17.55;40.59;98963.41;5072526;28;20363;-69
2022/10/20 01:45:02;;;;;;;;;;;;;;;17.54;40.48;98969.69;5075403;28;19912;-68
2022/10/20 01:47:27;;;;;;;;;;;;;;;17.55;40.62;98973.97;5075541;28;19912;-69
2022/10/20 01:49:53;;;;;;;;;;;;;;;17.53;40.60;98975.94;5074749;28;19945;-68
2022/10/20 01:52:19;;;;;;;;;;;;;;;17.53;40.51;98975.94;5075121;28;19995;-69
2022/10/20 01:54:44;;;;;;;;;;;;;;;17.50;40.57;98974.44;5057001;28;20286;-69
2022/10/20 01:57:13;;;;;;;;;;;;;;;17.50;40.72;98973.63;5075112;28;19920;-68
2022/10/20 01:59:50;;;;;;;;;;;;;;;17.48;40.86;98980.88;5072838;28;19919;-69
2022/10/20 02:02:21;;;;;;;;;;;;;;;17.45;40.84;98984.66;5084559;28;20319;-69
2022/10/20 02:04:50;;;;;;;;;;;;;;;17.43;41.12;98991.91;5063996;28;19919;-67
2022/10/20 02:07:17;;;;;;;;;;;;;;;17.42;40.93;98989.41;5083898;28;19961;-68
2022/10/20 02:09:49;;;;;;;;;;;;;;;17.40;40.82;98994.84;5046598;28;19960;-69
2022/10/20 02:12:16;;;;;;;;;;;;;;;17.36;41.25;98991.69;5064158;28;19912;-68
2022/10/20 02:14:41;;;;;;;;;;;;;;;17.35;41.13;98995.31;5048427;28;19919;-68
2022/10/20 02:17:09;;;;;;;;;;;;;;;17.27;40.87;98997.88;5047758;28;20015;-68
2022/10/20 02:19:35;;;;;;;;;;;;;;;17.22;41.15;99000.16;5044192;28;20426;-68
2022/10/20 02:22:00;;;;;;;;;;;;;;;17.14;41.14;99003.56;5047330;28;19958;-68
2022/10/20 02:24:27;;;;;;;;;;;;;;;17.09;41.17;99000.53;5047958;28;19951;-68
2022/10/20 02:26:53;;;;;;;;;;;;;;;17.06;41.30;99002.66;5065737;28;19942;-67
2022/10/20 02:29:19;;;;;;;;;;;;;;;17.00;41.47;99004.94;5045164;28;19916;-68
2022/10/20 02:31:45;;;;;;;;;;;;;;;16.93;41.75;99010.94;5064493;28;20440;-69
2022/10/20 02:34:10;;;;;;;;;;;;;;;16.89;41.73;99015.72;5048652;28;19927;-69
2022/10/20 02:36:39;;;;;;;;;;;;;;;16.82;41.99;99020.72;5061024;28;20356;-68
2022/10/20 02:39:05;;;;;;;;;;;;;;;16.78;42.00;99027.28;5064413;28;20412;-68
2022/10/20 02:41:30;;;;;;;;;;;;;;;16.73;42.23;99026.03;5065950;28;19924;-69
2022/10/20 02:43:55;;;;;;;;;;;;;;;16.68;42.25;99030.94;5063426;28;19912;-69
2022/10/20 02:46:21;;;;;;;;;;;;;;;16.63;42.29;99037.50;5048047;28;20378;-69
2022/10/20 02:48:46;;;;;;;;;;;;;;;16.61;42.38;99044.72;5064912;28;19995;-68
2022/10/20 02:51:12;;;;;;;;;;;;;;;16.57;42.49;99040.72;5063069;28;19919;-69
2022/10/20 02:53:37;;;;;;;;;;;;;;;16.55;42.62;99040.03;5065352;28;19951;-70
2022/10/20 02:56:02;;;;;;;;;;;;;;;16.56;42.60;99036.44;5064201;28;19916;-70
2022/10/20 02:58:28;;;;;;;;;;;;;;;16.56;42.51;99035.63;5081535;28;19912;-71
2022/10/20 03:00:53;;;;;;;;;;;;;;;16.52;42.75;99040.31;5048246;28;20006;-71
2022/10/20 03:03:19;;;;;;;;;;;;;;;16.52;42.59;99039.50;5037349;28;19990;-70
2022/10/20 03:05:45;;;;;;;;;;;;;;;16.48;42.76;99040.75;5053923;28;19912;-70
2022/10/20 03:08:11;;;;;;;;;;;;;;;16.44;42.99;99046.31;5053691;28;19958;-70
2022/10/20 03:10:37;;;;;;;;;;;;;;;16.45;43.05;99042.72;5051620;28;19962;-69
2022/10/20 03:13:03;;;;;;;;;;;;;;;16.45;42.91;99050.63;5053418;28;20311;-69
2022/10/20 03:15:28;;;;;;;;;;;;;;;16.41;42.99;99049.28;5053978;28;19912;-69
2022/10/20 03:17:53;;;;;;;;;;;;;;;16.36;43.26;99042.78;5053680;28;19918;-69
2022/10/20 03:20:19;;;;;;;;;;;;;;;16.35;43.22;99046.38;5054047;28;20034;-69
2022/10/20 03:22:44;;;;;;;;;;;;;;;16.34;43.28;99047.38;5053580;28;20017;-69
2022/10/20 03:25:09;;;;;;;;;;;;;;;16.30;43.42;99053.91;5035910;28;19916;-70
2022/10/20 03:27:34;;;;;;;;;;;;;;;16.25;43.52;99057.78;5051355;28;19943;-70
2022/10/20 03:30:00;;;;;;;;;;;;;;;16.25;43.49;99063.06;5053421;28;19912;-73
2022/10/20 03:32:25;;;;;;;;;;;;;;;16.23;43.51;99062.38;5053047;28;19912;-69
2022/10/20 03:34:50;;;;;;;;;;;;;;;16.21;43.59;99066.16;5052976;28;19920;-74
2022/10/20 03:37:16;;;;;;;;;;;;;;;16.16;43.70;99066.59;5034337;28;19952;-71
2022/10/20 03:39:41;;;;;;;;;;;;;;;16.10;43.89;99070.63;5036891;28;19916;-73
2022/10/20 03:42:06;;;;;;;;;;;;;;;16.14;51.38;99068.53;5035920;28;19912;-71
2022/10/20 03:44:32;;;;;;;;;;;;;;;16.59;54.86;99064.31;5053367;28;20006;-72
2022/10/20 03:46:58;;;;;;;;;;;;;;;16.99;53.97;99074.47;5034301;28;19921;-75
2022/10/20 03:49:24;;;;;;;;;;;;;;;16.96;50.85;99079.22;5036494;28;19955;-71
2022/10/20 03:51:49;;;;;;;;;;;;;;;16.80;49.40;99078.03;5035896;28;19955;-72
2022/10/20 03:54:14;;;;;;;;;;;;;;;16.64;48.28;99076.03;5036660;28;20379;-69
2022/10/20 03:56:40;;;;;;;;;;;;;;;16.48;47.50;99067.97;5052885;28;20407;-72
2022/10/20 03:59:05;;;;;;;;;;;;;;;16.36;47.16;99077.03;5034863;28;20428;-71
2022/10/20 04:01:30;;;;;;;;;;;;;;;16.27;46.72;99076.09;5038423;28;19945;-71
2022/10/20 04:03:56;;;;;;;;;;;;;;;16.22;46.32;99076.53;5047608;28;19916;-74
2022/10/20 04:06:21;;;;;;;;;;;;;;;16.18;46.31;99083.06;5044053;28;19936;-75
2022/10/20 04:08:46;;;;;;;;;;;;;;;16.13;46.09;99084.47;5062767;28;20390;-75
2022/10/20 04:11:12;;;;;;;;;;;;;;;16.10;45.99;99077.69;5064283;28;19920;-75
2022/10/20 04:13:37;;;;;;;;;;;;;;;16.07;45.83;99078.00;5062231;28;19969;-72
2022/10/20 04:16:02;;;;;;;;;;;;;;;16.02;45.82;99081.03;5046590;28;19959;-75
2022/10/20 04:18:28;;;;;;;;;;;;;;;15.96;45.64;99073.72;5045795;28;19919;-74
2022/10/20 04:20:53;;;;;;;;;;;;;;;15.90;45.76;99090.09;5061649;28;19913;-73
2022/10/20 04:23:18;;;;;;;;;;;;;;;15.86;45.87;99086.06;5064013;28;19916;-74
2022/10/20 04:25:47;;;;;;;;;;;;;;;15.84;45.77;99088.03;5062149;28;19923;-73
2022/10/20 04:28:13;;;;;;;;;;;;;;;15.81;45.80;99083.84;5062487;28;19920;-74
2022/10/20 04:30:38;;;;;;;;;;;;;;;15.80;45.81;99081.41;5064187;28;20341;-73
2022/10/20 04:33:03;;;;;;;;;;;;;;;15.79;45.94;99088.44;5044347;28;20357;-73
2022/10/20 04:35:29;;;;;;;;;;;;;;;15.77;45.96;99082.50;5062479;28;19920;-74
2022/10/20 04:37:54;;;;;;;;;;;;;;;15.77;45.91;99089.56;5064426;28;19952;-75
2022/10/20 04:40:19;;;;;;;;;;;;;;;15.77;45.98;99087.75;5068889;28;20315;-75
2022/10/20 04:42:45;;;;;;;;;;;;;;;15.83;45.80;99083.72;5049141;28;19920;-73
2022/10/20 04:45:10;;;;;;;;;;;;;;;15.89;45.59;99089.25;5067823;28;19915;-74
2022/10/20 04:47:36;;;;;;;;;;;;;;;16.00;45.44;99090.91;5065569;28;19913;-74
2022/10/20 04:50:01;;;;;;;;;;;;;;;16.13;45.16;99098.47;5049585;28;19911;-73
2022/10/20 04:52:27;;;;;;;;;;;;;;;16.30;44.69;99102.13;5068073;28;19916;-74
2022/10/20 04:54:52;;;;;;;;;;;;;;;16.48;44.32;99085.56;5065798;28;20165;-74
2022/10/20 04:57:18;;;;;;;;;;;;;;;16.77;43.85;99098.59;5049880;28;19911;-75
2022/10/20 04:59:43;;;;;;;;;;;;;;;17.04;43.28;99102.22;5066844;28;19916;-75
2022/10/20 05:02:10;;;;;;;;;;;;;;;17.37;42.36;99111.25;5061925;28;19923;-77
2022/10/20 05:04:35;;;;;;;;;;;;;;;17.70;41.80;99112.34;5055994;28;19916;-75
2022/10/20 05:07:00;;;;;;;;;;;;;;;18.01;41.31;99113.72;5038508;28;20402;-76
2022/10/20 05:09:26;;;;;;;;;;;;;;;18.36;40.58;99123.34;5039314;28;19916;-74
2022/10/20 05:11:52;;;;;;;;;;;;;;;18.72;39.62;99128.47;5039530;28;19963;-75
2022/10/20 05:14:17;;;;;;;;;;;;;;;19.08;38.94;99130.91;5056334;28;19912;-74
2022/10/20 05:16:43;;;;;;;;;;;;;;;19.46;38.23;99141.06;5056105;28;19924;-75
2022/10/20 05:19:08;;;;;;;;;;;;;;;19.84;37.61;99149.34;5073977;28;20023;-75
2022/10/20 05:21:33;;;;;;;;;;;;;;;20.18;36.75;99149.16;5056357;28;19912;-75
2022/10/20 05:24:00;;;;;;;;;;;;;;;20.51;36.23;99154.38;5056101;28;19951;-74
2022/10/20 05:26:25;;;;;;;;;;;;;;;20.86;35.65;99157.56;5056162;28;19918;-74
2022/10/20 05:28:50;;;;;;;;;;;;;;;21.18;34.88;99166.34;5036486;28;19917;-75
2022/10/20 05:31:16;;;;;;;;;;;;;;;21.48;34.41;99170.00;5055700;28;20390;-74
2022/10/20 05:33:48;;;;;;;;;;;;;;;21.86;33.81;99171.88;5039054;28;19920;-75
2022/10/20 05:36:14;;;;;;;;;;;;;;;22.18;33.45;99175.22;5034202;28;19917;-75
2022/10/20 05:38:40;;;;;;;;;;;;;;;22.56;32.45;99178.66;5039058;28;19916;-75
2022/10/20 05:41:05;;;;;;;;;;;;;;;22.89;31.97;99186.25;5055810;28;21250;-73
2022/10/20 05:43:30;;;;;;;;;;;;;;;23.21;31.20;99194.84;5055193;28;19999;-74
2022/10/20 05:45:56;;;;;;;;;;;;;;;23.59;29.68;99191.16;5073599;28;19978;-76
2022/10/20 05:48:21;;;;;;;;;;;;;;;24.03;34.18;99198.13;5040545;28;19912;-78
2022/10/20 05:50:46;;;;;;;;;;;;;;;24.62;33.66;99191.59;5054560;28;19932;-85
2022/10/20 05:53:12;;;;;;;;;;;;;;;25.01;29.81;99198.13;5036722;28;19913;-73
2022/10/20 05:55:37;;;;;;;;;;;;;;;25.27;28.01;99201.91;5055444;28;19913;-72
2022/10/20 05:58:02;;;;;;;;;;;;;;;25.36;27.75;99203.38;5037320;28;19917;-73
2022/10/20 06:00:30;;;;;;;;;;;;;;;25.33;27.53;99208.31;5073333;28;19935;-71
2022/10/20 06:02:55;;;;;;;;;;;;;;;25.39;27.42;99220.88;5069886;28;19973;-71
2022/10/20 06:05:21;;;;;;;;;;;;;;;25.48;26.57;99227.69;5057292;28;19916;-72
2022/10/20 06:07:46;;;;;;;;;;;;;;;25.35;26.81;99231.16;5075352;28;19920;-73
2022/10/20 06:10:11;;;;;;;;;;;;;;;25.57;26.05;99237.16;5075237;28;19912;-72
2022/10/20 06:12:36;;;;;;;;;;;;;;;25.64;25.71;99227.28;5075613;28;19912;-71
2022/10/20 06:15:02;;;;;;;;;;;;;;;25.64;25.24;99245.19;5075159;28;20007;-78
2022/10/20 06:17:27;;;;;;;;;;;;;;;25.68;25.81;99238.44;5059349;28;19915;-74
2022/10/20 06:19:53;;;;;;;;;;;;;;;25.85;25.19;99244.19;5056288;28;20422;-75
2022/10/20 06:22:18;;;;;;;;;;;;;;;26.15;25.60;99243.84;5058476;28;19912;-71
2022/10/20 06:24:43;;;;;;;;;;;;;;;26.42;25.27;99244.63;5092285;28;19949;-75
2022/10/20 06:27:09;;;;;;;;;;;;;;;26.64;24.50;99250.56;5055781;28;19958;-74
2022/10/20 06:29:34;;;;;;;;;;;;;;;27.01;25.15;99250.91;5074295;28;19919;-75
2022/10/20 06:31:59;;;;;;;;;;;;;;;27.53;24.24;99250.06;5092224;28;19916;-77
2022/10/20 06:34:25;;;;;;;;;;;;;;;27.76;23.27;99254.91;5057813;28;20003;-78
2022/10/20 06:36:50;;;;;;;;;;;;;;;27.97;22.73;99259.94;5057594;28;19960;-77
2022/10/20 06:39:17;;;;;;;;;;;;;;;28.58;22.61;99254.09;5055662;28;19912;-80
2022/10/20 06:41:42;;;;;;;;;;;;;;;29.51;21.50;99258.38;5049889;28;19912;-77
2022/10/20 06:44:08;;;;;;;;;;;;;;;30.44;20.69;99258.84;5067732;28;19912;-75
2022/10/20 06:46:34;;;;;;;;;;;;;;;31.31;19.27;99265.25;5073771;28;20275;-78
2022/10/20 06:49:00;;;;;;;;;;;;;;;32.12;18.06;99271.56;5055375;28;19919;-80
2022/10/20 06:51:25;;;;;;;;;;;;;;;32.91;17.71;99267.84;5073869;28;19918;-76
2022/10/20 06:53:50;;;;;;;;;;;;;;;32.88;17.84;99269.19;5056453;28;20003;-76
2022/10/20 06:56:20;;;;;;;;;;;;;;;31.98;18.88;99271.06;5054484;28;19912;-72
2022/10/20 06:58:46;;;;;;;;;;;;;;;31.43;18.78;99275.19;5073792;28;20007;-80
2022/10/20 07:01:13;;;;;;;;;;;;;;;30.74;20.33;99268.66;5091181;28;19927;-74
2022/10/20 07:03:38;;;;;;;;;;;;;;;30.23;20.22;99268.25;5056284;28;19912;-79
2022/10/20 07:06:04;;;;;;;;;;;;;;;29.63;20.69;99274.53;5074309;28;20382;-74
2022/10/20 07:08:30;;;;;;;;;;;;;;;29.13;21.10;99280.13;5057252;28;19919;-75
2022/10/20 07:11:07;;;;;;;;;;;;;;;29.03;21.94;99275.28;5076264;28;19919;-85
2022/10/20 07:13:33;;;;;;;;;;;;;;;29.19;22.14;99285.47;5080437;28;19912;-88
2022/10/20 07:15:58;;;;;;;;;;;;;;;29.18;21.74;99274.91;5074351;28;19983;-92
2022/10/20 07:18:24;;;;;;;;;;;;;;;29.10;22.00;99273.34;5082461;28;19916;-88
2022/10/20 07:20:49;;;;;;;;;;;;;;;29.36;21.47;99266.81;5076254;28;19999;-72
2022/10/20 07:23:14;;;;;;;;;;;;;;;29.62;21.20;99264.00;5073342;28;19920;-72
2022/10/20 07:25:40;;;;;;;;;;;;;;;29.83;21.54;99268.09;5073391;28;19935;-73
2022/10/20 07:28:05;;;;;;;;;;;;;;;30.00;21.09;99258.28;5073584;28;19912;-71
2022/10/20 07:30:30;;;;;;;;;;;;;;;30.04;21.22;99269.41;5073604;28;19916;-71
2022/10/20 07:32:56;;;;;;;;;;;;;;;30.27;20.36;99274.81;5073479;28;19961;-73
2022/10/20 07:35:21;;;;;;;;;;;;;;;30.39;20.82;99280.22;5074111;28;19972;-72
2022/10/20 07:37:46;;;;;;;;;;;;;;;30.38;19.73;99266.97;5055699;28;19918;-74
2022/10/20 07:40:11;;;;;;;;;;;;;;;30.48;21.15;99278.03;5073372;28;19918;-73
2022/10/20 07:42:37;;;;;;;;;;;;;;;30.64;21.13;99273.81;5056731;28;19934;-72
2022/10/20 07:45:02;;;;;;;;;;;;;;;30.66;21.18;99260.91;5054965;28;20375;-72
2022/10/20 07:47:27;;;;;;;;;;;;;;;30.72;20.57;99270.75;5057425;28;20284;-78
2022/10/20 07:49:53;;;;;;;;;;;;;;;30.82;19.19;99273.66;5074082;28;19923;-80
2022/10/20 07:52:18;;;;;;;;;;;;;;;30.85;20.21;99267.81;5055194;28;19919;-83
2022/10/20 07:54:44;;;;;;;;;;;;;;;30.89;18.96;99261.94;5057444;28;19922;-81
2022/10/20 07:57:09;;;;;;;;;;;;;;;30.65;20.31;99268.19;5056690;28;19917;-80
2022/10/20 07:59:34;;;;;;;;;;;;;;;30.89;19.89;99270.03;5073850;28;19927;-81
2022/10/20 08:02:00;;;;;;;;;;;;;;;30.83;19.67;99272.59;5073975;28;20280;-80
2022/10/20 08:04:25;;;;;;;;;;;;;;;30.86;18.55;99274.00;5055951;28;19913;-81
2022/10/20 08:06:50;;;;;;;;;;;;;;;31.09;19.33;99275.03;5074065;28;19951;-80
2022/10/20 08:09:16;;;;;;;;;;;;;;;31.13;19.60;99276.22;5092004;28;19935;-83
2022/10/20 08:11:41;;;;;;;;;;;;;;;31.13;19.18;99274.31;5091999;28;19931;-79
2022/10/20 08:14:06;;;;;;;;;;;;;;;31.24;20.04;99278.03;5056715;28;19937;-73
2022/10/20 08:16:33;;;;;;;;;;;;;;;31.35;19.45;99279.06;5073171;28;20318;-77
2022/10/20 08:18:58;;;;;;;;;;;;;;;31.46;20.25;99274.69;5056561;28;19912;-78
2022/10/20 08:21:24;;;;;;;;;;;;;;;31.61;19.87;99269.59;5091304;28;19912;-74
2022/10/20 08:23:49;;;;;;;;;;;;;;;32.10;19.96;99278.03;5056447;28;19973;-78
2022/10/20 08:26:21;;;;;;;;;;;;;;;32.55;19.81;99281.69;5072479;28;20307;-77
2022/10/20 08:28:47;;;;;;;;;;;;;;;32.94;18.81;99281.72;5073157;28;19961;-77
2022/10/20 08:31:12;;;;;;;;;;;;;;;33.11;19.54;99288.94;5074655;28;19920;-77
2022/10/20 08:33:39;;;;;;;;;;;;;;;33.41;19.48;99285.78;5073031;28;19912;-77
2022/10/20 08:36:08;;;;;;;;;;;;;;;33.76;17.88;99278.31;5091505;28;19912;-78
2022/10/20 08:38:34;;;;;;;;;;;;;;;34.01;17.54;99285.84;5053507;28;19916;-78
2022/10/20 08:40:59;;;;;;;;;;;;;;;34.13;18.17;99291.91;5056322;28;19918;-77
2022/10/20 08:43:25;;;;;;;;;;;;;;;34.30;18.09;99283.69;5049552;28;19912;-82
2022/10/20 08:45:50;;;;;;;;;;;;;;;34.48;18.23;99284.34;5073480;28;19912;-80
2022/10/20 08:48:19;;;;;;;;;;;;;;;34.08;17.48;99287.28;5057710;28;19912;-77
2022/10/20 08:50:45;;;;;;;;;;;;;;;33.96;18.55;99292.03;5072888;28;20374;-76
2022/10/20 08:53:10;;;;;;;;;;;;;;;33.97;16.85;99296.38;5062139;28;19976;-81
2022/10/20 08:55:36;;;;;;;;;;;;;;;34.22;16.57;99289.53;5058538;28;19912;-81
2022/10/20 08:58:01;;;;;;;;;;;;;;;33.23;16.77;99299.66;5073700;28;19923;-81
2022/10/20 09:00:27;;;;;;;;;;;;;;;32.74;17.19;99297.66;5091168;28;19976;-78
2022/10/20 09:02:53;;;;;;;;;;;;;;;32.25;17.32;99300.94;5056316;28;19920;-77
2022/10/20 09:05:20;;;;;;;;;;;;;;;32.56;17.11;99299.53;5072963;28;19921;-81
2022/10/20 09:07:48;;;;;;;;;;;;;;;32.74;16.98;99308.47;5056031;28;19912;-80
2022/10/20 09:10:26;;;;;;;;;;;;;;;32.61;16.71;99306.91;5073307;28;19920;-80
2022/10/20 09:12:51;;;;;;;;;;;;;;;32.66;16.81;99308.88;5091365;28;19995;-78
2022/10/20 09:15:17;;;;;;;;;;;;;;;33.01;16.29;99308.56;5073264;28;19999;-79
2022/10/20 09:17:44;;;;;;;;;;;;;;;33.02;16.51;99299.38;5072792;28;19916;-77
2022/10/20 09:20:20;;;;;;;;;;;;;;;33.53;16.35;99308.09;5055941;28;20377;-80
2022/10/20 09:22:46;;;;;;;;;;;;;;;33.96;15.96;99297.44;5072181;28;19955;-80
2022/10/20 09:25:14;;;;;;;;;;;;;;;33.51;16.11;99312.13;5075408;28;19955;-79
2022/10/20 09:27:41;;;;;;;;;;;;;;;32.72;16.22;99310.59;5076581;28;20299;-82
2022/10/20 09:30:14;;;;;;;;;;;;;;;32.19;16.76;99304.63;5059643;28;19912;-79
2022/10/20 09:32:39;;;;;;;;;;;;;;;31.95;16.82;99312.03;5073682;28;20003;-80
2022/10/20 09:35:14;;;;;;;;;;;;;;;31.59;17.36;99314.09;5058176;28;20431;-74
2022/10/20 09:37:39;;;;;;;;;;;;;;;32.11;17.04;99319.34;5092164;28;19912;-82
2022/10/20 09:40:11;;;;;;;;;;;;;;;32.35;16.98;99327.31;5076222;28;19911;-80
2022/10/20 09:42:37;;;;;;;;;;;;;;;31.59;17.32;99319.47;5057468;28;19912;-82
2022/10/20 09:45:06;;;;;;;;;;;;;;;31.84;17.08;99306.44;5058425;28;19969;-78
2022/10/20 09:47:32;;;;;;;;;;;;;;;32.14;17.18;99312.66;5058870;28;19912;-75
2022/10/20 09:49:58;;;;;;;;;;;;;;;32.31;16.84;99299.13;5094593;28;19912;-80
2022/10/20 09:52:26;;;;;;;;;;;;;;;32.52;16.52;99303.78;5058878;28;19922;-69
2022/10/20 09:54:53;;;;;;;;;;;;;;;32.54;16.64;99300.84;5075864;28;20292;-69
2022/10/20 09:57:19;;;;;;;;;;;;;;;32.72;16.58;99303.31;5075485;28;19912;-68
2022/10/20 09:59:45;;;;;;;;;;;;;;;32.74;16.40;99300.38;5075453;28;20446;-68
2022/10/20 10:02:13;;;;;;;;;;;;;;;32.65;16.83;99302.66;5075239;28;19915;-68
2022/10/20 10:04:39;;;;;;;;;;;;;;;31.99;16.72;99305.06;5093365;28;19935;-70
2022/10/20 10:07:05;;;;;;;;;;;;;;;31.69;17.29;99304.31;5075179;28;19912;-67
2022/10/20 10:09:33;;;;;;;;;;;;;;;31.55;17.48;99311.88;5074894;28;20303;-67
2022/10/20 10:12:10;;;;;;;;;;;;;;;31.85;17.45;99304.56;5075521;28;19912;-68
2022/10/20 10:14:35;;;;;;;;;;;;;;;31.81;17.46;99298.84;5090643;28;19912;-69
2022/10/20 10:17:01;;;;;;;;;;;;;;;31.72;17.18;99306.53;5093081;28;20280;-68
2022/10/20 10:19:27;;;;;;;;;;;;;;;31.84;16.98;99311.84;5093218;28;20298;-68
2022/10/20 10:21:56;;;;;;;;;;;;;;;31.33;16.76;99297.38;5075060;28;19916;-68
2022/10/20 10:24:42;;;;;;;;;;;;;;;30.98;17.66;99298.25;5074343;28;19970;-69
2022/10/20 10:27:26;;;;;;;;;;;;;;;30.63;17.90;99301.78;5073641;28;19995;-68
2022/10/20 10:29:52;;;;;;;;;;;;;;;30.28;18.12;99294.47;5074642;28;19919;-71
2022/10/20 10:32:22;;;;;;;;;;;;;;;29.99;18.28;99293.50;5074918;28;19912;-68
2022/10/20 10:35:08;;;;;;;;;;;;;;;29.71;18.84;99295.72;5092366;28;19920;-69
2022/10/20 10:37:33;;;;;;;;;;;;;;;29.41;19.02;99293.88;5073902;28;19916;-68
2022/10/20 10:40:00;;;;;;;;;;;;;;;29.19;19.60;99306.13;5074907;28;19912;-67
2022/10/20 10:42:40;;;;;;;;;;;;;;;29.18;19.61;99299.09;5092606;28;19912;-69
2022/10/20 10:45:12;;;;;;;;;;;;;;;29.00;19.84;99291.84;5091440;28;19916;-67
2022/10/20 10:47:40;;;;;;;;;;;;;;;28.92;19.94;99287.59;5090201;28;20371;-67
2022/10/20 10:50:20;;;;;;;;;;;;;;;28.78;20.37;99292.31;5092445;28;19912;-69
2022/10/20 10:52:46;;;;;;;;;;;;;;;28.65;20.37;99285.19;5073124;28;19919;-68
2022/10/20 10:55:14;;;;;;;;;;;;;;;28.55;20.69;99284.03;5092582;28;19912;-68
2022/10/20 10:57:58;;;;;;;;;;;;;;;28.42;20.42;99280.41;5074404;28;19912;-69
2022/10/20 11:00:35;;;;;;;;;;;;;;;28.39;20.65;99283.53;5090731;28;19920;-67
2022/10/20 11:03:13;;;;;;;;;;;;;;;28.58;20.80;99279.06;5090183;28;20432;-68
2022/10/20 11:05:50;;;;;;;;;;;;;;;28.53;21.03;99278.88;5071865;28;19912;-69
2022/10/20 11:08:42;;;;;;;;;;;;;;;28.50;21.52;99269.41;5071300;28;19912;-68
2022/10/20 11:11:26;;;;;;;;;;;;;;;28.32;21.44;99270.19;5066827;28;19974;-68
2022/10/20 11:14:05;;;;;;;;;;;;;;;28.18;21.77;99268.66;5091588;28;19912;-68
2022/10/20 11:16:30;;;;;;;;;;;;;;;28.02;22.18;99266.50;5073771;28;19920;-67
2022/10/20 11:19:06;;;;;;;;;;;;;;;27.83;22.07;99263.69;5092333;28;20390;-67
2022/10/20 11:21:50;;;;;;;;;;;;;;;27.66;22.09;99252.69;5073912;28;19912;-68
2022/10/20 11:24:18;;;;;;;;;;;;;;;27.55;22.60;99259.56;5089326;28;19920;-68
2022/10/20 11:26:44;;;;;;;;;;;;;;;27.44;22.71;99262.94;5091687;28;19927;-68
2022/10/20 11:29:15;;;;;;;;;;;;;;;27.36;22.93;99261.31;5073770;28;20003;-69
2022/10/20 11:32:03;;;;;;;;;;;;;;;27.24;23.00;99260.31;5092118;28;19919;-68
2022/10/20 11:34:29;;;;;;;;;;;;;;;27.12;22.92;99262.84;5028565;28;19913;-67
2022/10/20 11:37:20;;;;;;;;;;;;;;;27.01;23.24;99264.31;5021270;28;19975;-68
2022/10/20 11:39:51;;;;;;;;;;;;;;;26.90;23.45;99259.63;5017950;28;19995;-68
2022/10/20 11:42:19;;;;;;;;;;;;;;;26.77;23.75;99254.28;5021261;28;19992;-68
2022/10/20 11:44:45;;;;;;;;;;;;;;;26.70;23.56;99252.44;5029151;28;19916;-69
2022/10/20 11:47:11;;;;;;;;;;;;;;;26.63;23.31;99250.78;5028801;28;19913;-70
2022/10/20 11:49:37;;;;;;;;;;;;;;;26.60;22.96;99253.88;5029188;28;19912;-67
2022/10/20 11:52:11;;;;;;;;;;;;;;;26.54;22.89;99251.00;5020792;28;19913;-67
2022/10/20 11:54:55;;;;;;;;;;;;;;;26.47;23.17;99244.84;5029103;28;19937;-68
2022/10/20 11:57:20;;;;;;;;;;;;;;;26.47;23.21;99246.69;5029113;28;20292;-69
2022/10/20 11:59:54;;;;;;;;;;;;;;;26.52;23.00;99249.59;5028968;28;19913;-68
2022/10/20 12:02:35;;;;;;;;;;;;;;;26.54;22.87;99248.31;5019625;28;19925;-68
2022/10/20 12:05:00;;;;;;;;;;;;;;;26.60;22.69;99245.84;5009205;28;19956;-67
2022/10/20 12:07:31;;;;;;;;;;;;;;;26.60;22.52;99240.47;5009141;28;19913;-68
2022/10/20 12:10:00;;;;;;;;;;;;;;;26.58;22.34;99245.22;5009169;28;19913;-67
2022/10/20 12:12:26;;;;;;;;;;;;;;;26.51;22.64;99246.06;5062410;28;19912;-67
2022/10/20 12:15:00;;;;;;;;;;;;;;;26.46;22.18;99237.84;5052956;28;19912;-67
2022/10/20 12:17:32;;;;;;;;;;;;;;;26.38;22.45;99240.75;5053074;28;19947;-69
2022/10/20 12:20:16;;;;;;;;;;;;;;;26.28;22.15;99233.13;5050480;28;19919;-68
2022/10/20 12:22:41;;;;;;;;;;;;;;;26.28;22.15;99235.81;5069570;28;19962;-67
2022/10/20 12:25:07;;;;;;;;;;;;;;;26.23;22.44;99238.25;5053049;28;19912;-67
2022/10/20 12:27:32;;;;;;;;;;;;;;;26.20;22.61;99243.22;5070784;28;19916;-67
2022/10/20 12:30:24;;;;;;;;;;;;;;;26.20;22.37;99240.53;5052455;28;20383;-67
2022/10/20 12:32:57;;;;;;;;;;;;;;;26.13;22.30;99252.06;5044917;28;19912;-68
2022/10/20 12:35:22;;;;;;;;;;;;;;;26.04;22.24;99247.13;5050782;28;20007;-68
2022/10/20 12:37:54;;;;;;;;;;;;;;;25.97;22.35;99249.81;5070769;28;20010;-69
2022/10/20 12:40:24;;;;;;;;;;;;;;;25.95;22.31;99254.47;5050466;28;20002;-68
2022/10/20 12:42:50;;;;;;;;;;;;;;;25.90;22.52;99243.59;5052827;28;19962;-67
2022/10/20 12:45:19;;;;;;;;;;;;;;;25.89;22.63;99247.31;5030933;28;19912;-67
2022/10/20 12:47:51;;;;;;;;;;;;;;;25.87;22.61;99246.66;5070813;28;19978;-68
2022/10/20 12:50:22;;;;;;;;;;;;;;;25.83;22.86;99246.25;5049286;28;19917;-68